Terminal Aerodrome Forecast
Issued by NWS

Home | Current Version | Previous Version | Text Only | Print | Product List | Glossary On
Versions: 1 2 3 4 5 6 7 8 9 10 11 12 13 14 15 16 17
000
FTUS42 KTAE 262342 CCA
TAFABY
TAF COR
KABY 262342Z 2700/2724 00000KT P6SM -SHRA BKN070
     FM270200 13003KT P6SM FEW025 BKN120
     FM271000 10003KT P6SM BKN015
     FM271700 11004KT P6SM VCTS BKN040CB
      TEMPO 2717/2721 VRB25KT 2SM TSRA OVC035CB=

USA.gov is the U.S. government's official web portal to all federal, state and local government web resources and services.